createdAt,value
2022-08-27T00:00:16.769Z,101157.16
2022-08-27T00:02:44.192Z,101162.13
2022-08-27T00:05:12.426Z,101155.78
2022-08-27T00:07:39.797Z,101153.94
2022-08-27T00:10:08.322Z,101151.38
2022-08-27T00:12:35.499Z,101153.16
2022-08-27T00:15:02.488Z,101146.59
2022-08-27T00:17:29.388Z,101151.31
2022-08-27T00:19:56.239Z,101152.22
2022-08-27T00:22:23.603Z,101153.63
2022-08-27T00:24:50.251Z,101146.75
2022-08-27T00:27:17.448Z,101149.31
2022-08-27T00:29:44.149Z,101144.09
2022-08-27T00:32:10.909Z,101151.19
2022-08-27T00:34:37.617Z,101143.00
2022-08-27T00:37:06.756Z,101140.44
2022-08-27T00:39:34.618Z,101152.09
2022-08-27T00:42:01.369Z,101141.88
2022-08-27T00:44:28.796Z,101145.63
2022-08-27T00:46:57.657Z,101144.84
2022-08-27T00:49:32.821Z,101145.16
2022-08-27T00:52:05.414Z,101148.81
2022-08-27T00:54:32.812Z,101144.59
2022-08-27T00:57:00.013Z,101147.13
2022-08-27T00:59:31.188Z,101149.34
2022-08-27T01:02:16.541Z,101149.66
2022-08-27T01:04:45.379Z,101147.06
2022-08-27T01:07:12.184Z,101144.78
2022-08-27T01:09:39.225Z,101143.97
2022-08-27T01:12:06.079Z,101145.47
2022-08-27T01:14:33.384Z,101144.63
2022-08-27T01:17:00.794Z,101141.41
2022-08-27T01:19:38.486Z,101138.72
2022-08-27T01:22:31.026Z,101147.38
2022-08-27T01:25:01.073Z,101147.50
2022-08-27T01:27:29.283Z,101134.88
2022-08-27T01:29:56.020Z,101136.25
2022-08-27T01:32:32.190Z,101135.88
2022-08-27T01:34:59.951Z,101132.19
2022-08-27T01:37:27.742Z,101134.34
2022-08-27T01:39:56.426Z,101134.94
2022-08-27T01:42:35.022Z,101130.84
2022-08-27T01:45:06.201Z,101132.44
2022-08-27T01:47:34.083Z,101132.09
2022-08-27T01:50:00.897Z,101137.16
2022-08-27T01:52:30.517Z,101130.09
2022-08-27T01:54:57.331Z,101133.22
2022-08-27T01:57:26.130Z,101119.72
2022-08-27T01:59:53.497Z,101132.44
2022-08-27T02:02:20.820Z,101128.53
2022-08-27T02:04:47.460Z,101128.53
2022-08-27T02:07:14.118Z,101129.38
2022-08-27T02:09:40.807Z,101128.53
2022-08-27T02:12:07.683Z,101124.47
2022-08-27T02:14:34.723Z,101130.78
2022-08-27T02:17:01.423Z,101124.22
2022-08-27T02:19:29.108Z,101124.00
2022-08-27T02:21:56.908Z,101118.38
2022-08-27T02:24:23.521Z,101123.63
2022-08-27T02:26:50.180Z,101118.69
2022-08-27T02:29:16.841Z,101124.31
2022-08-27T02:31:43.470Z,101124.63
2022-08-27T02:34:10.874Z,101123.69
2022-08-27T02:36:38.432Z,101125.28
2022-08-27T02:39:06.268Z,101128.84
2022-08-27T02:41:32.896Z,101128.00
2022-08-27T02:44:01.181Z,101136.78
2022-08-27T02:46:29.078Z,101124.59
2022-08-27T02:48:56.218Z,101118.91
2022-08-27T02:51:22.862Z,101126.97
2022-08-27T02:53:50.443Z,101123.88
2022-08-27T02:56:17.339Z,101128.25
2022-08-27T02:58:48.777Z,101121.78
2022-08-27T03:01:15.747Z,101117.69
2022-08-27T03:03:42.487Z,101123.94
2022-08-27T03:06:09.136Z,101125.50
2022-08-27T03:08:52.256Z,101117.81
2022-08-27T03:11:20.515Z,101117.47
2022-08-27T03:13:47.171Z,101114.13
2022-08-27T03:16:13.923Z,101114.38
2022-08-27T03:18:40.750Z,101115.09
2022-08-27T03:21:08.386Z,101112.94
2022-08-27T03:23:35.645Z,101111.22
2022-08-27T03:26:09.737Z,101104.56
2022-08-27T03:28:36.451Z,101109.66
2022-08-27T03:31:05.943Z,101107.50
2022-08-27T03:33:36.686Z,101110.66
2022-08-27T03:36:05.104Z,101115.34
2022-08-27T03:38:32.201Z,101115.63
2022-08-27T03:40:59.721Z,101117.38
2022-08-27T03:43:26.372Z,101109.06
2022-08-27T03:46:01.451Z,101118.03
2022-08-27T03:48:30.003Z,101111.16
2022-08-27T03:50:56.737Z,101114.84
2022-08-27T03:53:23.413Z,101119.09
2022-08-27T03:55:50.120Z,101111.94
2022-08-27T03:58:16.978Z,101114.16
2022-08-27T04:00:43.710Z,101120.50
2022-08-27T04:03:13.294Z,101116.13
2022-08-27T04:05:40.544Z,101108.16
2022-08-27T04:08:10.054Z,101119.22
2022-08-27T04:10:40.793Z,101122.03
2022-08-27T04:13:07.711Z,101126.56
2022-08-27T04:15:34.512Z,101119.03
2022-08-27T04:18:07.196Z,101114.09
2022-08-27T04:20:35.828Z,101126.84
2022-08-27T04:23:03.098Z,101123.84
2022-08-27T04:25:29.877Z,101124.84
2022-08-27T04:27:56.575Z,101119.72
2022-08-27T04:30:23.359Z,101121.19
2022-08-27T04:32:50.755Z,101123.97
2022-08-27T04:35:17.797Z,101129.22
2022-08-27T04:37:44.536Z,101126.09
2022-08-27T04:40:12.644Z,101128.56
2022-08-27T04:42:39.332Z,101127.91
2022-08-27T04:45:06.567Z,101135.88
2022-08-27T04:47:33.338Z,101136.03
2022-08-27T04:50:00.134Z,101137.09
2022-08-27T04:52:27.078Z,101142.50
2022-08-27T04:54:53.832Z,101146.50
2022-08-27T04:57:21.099Z,101153.72
2022-08-27T04:59:48.189Z,101155.75
2022-08-27T05:02:14.889Z,101155.75
2022-08-27T05:04:41.816Z,101147.47
2022-08-27T05:07:10.233Z,101148.34
2022-08-27T05:09:37.539Z,101143.81
2022-08-27T05:12:04.311Z,101154.56
2022-08-27T05:14:32.448Z,101148.84
2022-08-27T05:17:00.258Z,101145.53
2022-08-27T05:19:27.378Z,101146.69
2022-08-27T05:21:54.362Z,101144.63
2022-08-27T05:24:21.476Z,101152.44
2022-08-27T05:26:48.422Z,101152.25
2022-08-27T05:29:15.431Z,101148.03
2022-08-27T05:31:42.868Z,101150.69
2022-08-27T05:34:14.119Z,101156.00
2022-08-27T05:36:48.900Z,101149.31
2022-08-27T05:39:16.534Z,101150.94
2022-08-27T05:41:43.466Z,101152.97
2022-08-27T05:44:39.047Z,101148.38
2022-08-27T05:46:57.653Z,101157.38
2022-08-27T05:49:24.429Z,101154.09
2022-08-27T05:51:51.266Z,101162.81
2022-08-27T05:54:21.199Z,101156.84
2022-08-27T05:56:50.069Z,101154.56
2022-08-27T05:59:35.998Z,101153.19
2022-08-27T06:02:04.152Z,101146.75
2022-08-27T06:04:30.886Z,101148.50
2022-08-27T06:06:57.790Z,101154.94
2022-08-27T06:09:26.375Z,101148.94
2022-08-27T06:11:54.378Z,101150.66
2022-08-27T06:14:22.035Z,101153.88
2022-08-27T06:16:48.807Z,101157.16
2022-08-27T06:19:15.868Z,101155.59
2022-08-27T06:21:42.782Z,101163.41
2022-08-27T06:24:12.350Z,101169.94
2022-08-27T06:26:40.293Z,101165.06
2022-08-27T06:29:08.003Z,101164.56
2022-08-27T06:31:37.518Z,101169.03
2022-08-27T06:34:08.261Z,101170.38
2022-08-27T06:36:40.508Z,101165.84
2022-08-27T06:39:08.973Z,101161.66
2022-08-27T06:41:35.981Z,101172.66
2022-08-27T06:44:04.004Z,101164.69
2022-08-27T06:46:30.815Z,101163.25
2022-08-27T06:49:01.586Z,101167.59
2022-08-27T06:51:30.393Z,101169.34
2022-08-27T06:53:59.012Z,101164.28
2022-08-27T06:56:26.015Z,101173.25
2022-08-27T06:58:58.262Z,101169.94
2022-08-27T07:01:28.347Z,101166.69
2022-08-27T07:03:58.619Z,101166.47
2022-08-27T07:06:26.740Z,101174.13
2022-08-27T07:08:53.946Z,101167.78
2022-08-27T07:11:23.707Z,101164.50
2022-08-27T07:13:50.969Z,101166.03
2022-08-27T07:16:22.676Z,101165.31
2022-08-27T07:18:51.735Z,101172.66
2022-08-27T07:21:20.199Z,101172.97
2022-08-27T07:23:47.301Z,101171.41
2022-08-27T07:26:15.177Z,101166.44
2022-08-27T07:28:43.419Z,101163.84
2022-08-27T07:31:14.827Z,101158.41
2022-08-27T07:33:45.378Z,101161.41
2022-08-27T07:36:18.089Z,101163.97
2022-08-27T07:38:44.757Z,101181.41
2022-08-27T07:41:20.639Z,101175.63
2022-08-27T07:44:05.909Z,101173.13
2022-08-27T07:46:35.805Z,101180.44
2022-08-27T07:49:04.641Z,101180.81
2022-08-27T07:51:32.917Z,101181.25
2022-08-27T07:53:59.850Z,101185.00
2022-08-27T07:56:29.611Z,101186.28
2022-08-27T07:58:56.335Z,101180.78
2022-08-27T08:01:24.232Z,101177.13
2022-08-27T08:03:50.943Z,101186.19
2022-08-27T08:06:17.787Z,101183.66
2022-08-27T08:08:45.432Z,101195.09
2022-08-27T08:11:14.344Z,101192.16
2022-08-27T08:13:41.737Z,101190.66
2022-08-27T08:16:08.622Z,101191.38
2022-08-27T08:18:35.916Z,101186.91
2022-08-27T08:21:07.120Z,101188.22
2022-08-27T08:23:34.285Z,101188.50
2022-08-27T08:26:01.663Z,101195.91
2022-08-27T08:28:30.345Z,101192.38
2022-08-27T08:30:57.853Z,101195.47
2022-08-27T08:33:24.944Z,101198.31
2022-08-27T08:35:51.685Z,101200.00
2022-08-27T08:38:19.132Z,101203.69
2022-08-27T08:40:53.385Z,101204.66
2022-08-27T08:43:35.818Z,101209.63
2022-08-27T08:46:17.428Z,101202.88
2022-08-27T08:48:47.978Z,101209.03
2022-08-27T08:51:21.128Z,101211.72
2022-08-27T08:54:15.698Z,101215.06
2022-08-27T08:56:57.036Z,101218.84
2022-08-27T08:59:30.184Z,101214.63
2022-08-27T09:01:58.211Z,101216.81
2022-08-27T09:04:26.741Z,101220.78
2022-08-27T09:07:17.948Z,101217.91
2022-08-27T09:09:52.755Z,101211.50
2022-08-27T09:12:30.756Z,101220.66
2022-08-27T09:15:06.730Z,101227.50
2022-08-27T09:17:38.101Z,101228.34
2022-08-27T09:20:05.720Z,101233.31
2022-08-27T09:22:51.312Z,101235.00
2022-08-27T09:25:39.147Z,101224.94
2022-08-27T09:28:32.500Z,101233.44
2022-08-27T09:31:03.984Z,101238.69
2022-08-27T09:33:44.678Z,101230.47
2022-08-27T09:36:21.684Z,101225.78
2022-08-27T09:38:58.878Z,101230.19
2022-08-27T09:41:29.648Z,101234.06
2022-08-27T09:44:01.022Z,101227.25
2022-08-27T09:46:28.332Z,101229.06
2022-08-27T09:48:55.952Z,101226.53
2022-08-27T09:51:27.068Z,101227.22
2022-08-27T09:54:00.296Z,101222.66
2022-08-27T09:56:42.248Z,101221.38
2022-08-27T09:59:20.897Z,101225.59
2022-08-27T10:01:55.171Z,101224.47
2022-08-27T10:04:37.966Z,101227.66
2022-08-27T10:07:31.838Z,101229.91
2022-08-27T10:10:16.415Z,101230.94
2022-08-27T10:12:52.101Z,101229.06
2022-08-27T10:15:18.796Z,101232.97
2022-08-27T10:18:02.652Z,101228.31
2022-08-27T10:20:39.450Z,101221.00
2022-08-27T10:23:10.325Z,101221.59
2022-08-27T10:25:43.213Z,101225.59
2022-08-27T10:28:20.457Z,101228.66
2022-08-27T10:31:17.948Z,101229.19
2022-08-27T10:33:52.009Z,101234.88
2022-08-27T10:36:37.417Z,101231.75
2022-08-27T10:39:10.100Z,101240.25
2022-08-27T10:41:42.112Z,101223.63
2022-08-27T10:44:20.938Z,101226.13
2022-08-27T10:46:53.578Z,101213.31
2022-08-27T10:49:32.240Z,101222.22
2022-08-27T10:52:18.313Z,101212.53
2022-08-27T10:55:00.276Z,101214.59
2022-08-27T10:57:51.796Z,101219.16
2022-08-27T11:00:21.723Z,101221.44
2022-08-27T11:02:56.806Z,101210.34
2022-08-27T11:05:27.503Z,101213.44
2022-08-27T11:07:58.151Z,101207.75
2022-08-27T11:10:36.937Z,101203.75
2022-08-27T11:13:10.903Z,101206.69
2022-08-27T11:15:40.689Z,101204.44
2022-08-27T11:18:19.790Z,101206.91
2022-08-27T11:20:58.085Z,101210.72
2022-08-27T11:23:32.757Z,101207.88
2022-08-27T11:26:04.852Z,101210.56
2022-08-27T11:28:37.729Z,101214.97
2022-08-27T11:31:30.738Z,101211.84
2022-08-27T11:34:05.774Z,101198.09
2022-08-27T11:36:32.464Z,101196.38
2022-08-27T11:39:14.242Z,101199.91
2022-08-27T11:41:59.127Z,101199.50
2022-08-27T11:44:26.840Z,101205.16
2022-08-27T11:46:56.550Z,101201.47
2022-08-27T11:49:44.990Z,101198.91
2022-08-27T11:52:13.107Z,101207.13
2022-08-27T11:54:48.878Z,101199.50
2022-08-27T11:57:37.246Z,101207.88
2022-08-27T12:00:19.018Z,101198.91
2022-08-27T12:03:09.398Z,101205.00
2022-08-27T12:05:54.526Z,101208.09
2022-08-27T12:08:30.100Z,101205.28
2022-08-27T12:11:27.723Z,101200.75
2022-08-27T12:14:20.824Z,101203.72
2022-08-27T12:17:03.517Z,101200.88
2022-08-27T12:19:57.169Z,101191.66
2022-08-27T12:23:06.308Z,101194.00
2022-08-27T12:25:33.075Z,101190.19
2022-08-27T12:28:06.882Z,101185.19
2022-08-27T12:30:42.120Z,101196.97
2022-08-27T12:33:33.258Z,101197.38
2022-08-27T12:36:14.583Z,101192.53
2022-08-27T12:38:50.573Z,101194.50
2022-08-27T12:41:43.957Z,101194.06
2022-08-27T12:44:26.225Z,101197.94
2022-08-27T12:46:58.328Z,101192.69
2022-08-27T12:49:37.856Z,101194.78
2022-08-27T12:52:34.636Z,101192.19
2022-08-27T12:55:13.585Z,101192.25
2022-08-27T12:57:52.545Z,101192.91
2022-08-27T13:00:24.167Z,101193.91
2022-08-27T13:03:36.370Z,101194.03
2022-08-27T13:06:03.274Z,101189.78
2022-08-27T13:08:33.604Z,101184.38
2022-08-27T13:11:21.944Z,101187.25
2022-08-27T13:13:49.784Z,101188.25
2022-08-27T13:16:20.918Z,101191.47
2022-08-27T13:18:49.409Z,101190.47
2022-08-27T13:21:30.731Z,101184.47
2022-08-27T13:24:01.151Z,101175.66
2022-08-27T13:26:31.628Z,101178.91
2022-08-27T13:29:03.282Z,101181.13
2022-08-27T13:31:31.497Z,101178.06
2022-08-27T13:33:58.927Z,101177.66
2022-08-27T13:36:31.950Z,101166.69
2022-08-27T13:39:00.825Z,101176.88
2022-08-27T13:41:34.679Z,101168.78
2022-08-27T13:44:25.556Z,101169.00
2022-08-27T13:46:57.936Z,101173.41
2022-08-27T13:49:26.305Z,101177.72
2022-08-27T13:52:27.780Z,101169.19
2022-08-27T13:55:05.939Z,101166.69
2022-08-27T13:57:50.607Z,101163.00
2022-08-27T14:00:19.757Z,101167.09
2022-08-27T14:02:55.596Z,101169.81
2022-08-27T14:05:23.207Z,101165.53
2022-08-27T14:07:58.599Z,101170.44
2022-08-27T14:10:40.964Z,101164.41
2022-08-27T14:13:11.504Z,101159.38
2022-08-27T14:15:38.645Z,101162.94
2022-08-27T14:18:19.590Z,101165.31
2022-08-27T14:20:46.893Z,101167.00
2022-08-27T14:23:13.535Z,101163.00
2022-08-27T14:25:40.861Z,101158.16
2022-08-27T14:28:07.806Z,101166.81
2022-08-27T14:30:34.582Z,101158.69
2022-08-27T14:33:02.630Z,101163.44
2022-08-27T14:35:31.596Z,101164.25
2022-08-27T14:37:58.932Z,101167.66
2022-08-27T14:40:25.736Z,101159.47
2022-08-27T14:42:53.148Z,101169.28
2022-08-27T14:45:20.905Z,101155.34
2022-08-27T14:47:47.812Z,101160.53
2022-08-27T14:50:15.035Z,101167.00
2022-08-27T14:52:42.041Z,101155.31
2022-08-27T14:55:10.780Z,101157.16
2022-08-27T14:57:38.147Z,101157.41
2022-08-27T15:00:07.331Z,101160.47
2022-08-27T15:02:34.758Z,101151.03
2022-08-27T15:05:01.531Z,101160.38
2022-08-27T15:07:38.880Z,101157.28
2022-08-27T15:10:08.927Z,101160.00
2022-08-27T15:12:35.599Z,101157.66
2022-08-27T15:15:04.804Z,101156.44
2022-08-27T15:17:35.387Z,101158.44
2022-08-27T15:20:06.992Z,101161.84
2022-08-27T15:22:34.326Z,101169.47
2022-08-27T15:25:02.990Z,101163.00
2022-08-27T15:27:37.935Z,101161.53
2022-08-27T15:30:10.625Z,101169.66
2022-08-27T15:32:41.484Z,101167.81
2022-08-27T15:35:14.051Z,101164.56
2022-08-27T15:37:42.368Z,101167.56
2022-08-27T15:40:10.599Z,101165.56
2022-08-27T15:42:37.491Z,101167.13
2022-08-27T15:45:04.875Z,101163.88
2022-08-27T15:47:31.608Z,101165.91
2022-08-27T15:49:58.499Z,101169.88
2022-08-27T15:52:25.753Z,101168.00
2022-08-27T15:55:19.838Z,101165.47
2022-08-27T15:57:47.086Z,101161.75
2022-08-27T16:00:14.337Z,101167.16
2022-08-27T16:02:41.899Z,101169.88
2022-08-27T16:05:09.681Z,101169.94
2022-08-27T16:07:36.445Z,101168.25
2022-08-27T16:10:04.877Z,101169.25
2022-08-27T16:12:31.606Z,101173.19
2022-08-27T16:14:58.429Z,101171.34
2022-08-27T16:17:26.613Z,101172.03
2022-08-27T16:19:56.337Z,101171.03
2022-08-27T16:22:23.461Z,101163.94
2022-08-27T16:24:50.231Z,101167.25
2022-08-27T16:27:16.994Z,101166.25
2022-08-27T16:29:43.768Z,101168.63
2022-08-27T16:32:14.846Z,101167.09
2022-08-27T16:34:41.573Z,101166.41
2022-08-27T16:37:08.291Z,101167.53
2022-08-27T16:39:38.744Z,101168.41
2022-08-27T16:42:10.312Z,101168.56
2022-08-27T16:44:38.444Z,101166.69
2022-08-27T16:47:06.595Z,101159.75
2022-08-27T16:49:51.961Z,101174.97
2022-08-27T16:52:21.091Z,101160.47
2022-08-27T16:54:47.872Z,101165.03
2022-08-27T16:57:18.884Z,101161.28
2022-08-27T16:59:48.806Z,101160.13
2022-08-27T17:02:31.191Z,101160.28
2022-08-27T17:05:17.318Z,101157.91
2022-08-27T17:07:48.317Z,101158.91
2022-08-27T17:10:19.326Z,101159.06
2022-08-27T17:12:47.234Z,101160.91
2022-08-27T17:15:18.186Z,101167.63
2022-08-27T17:17:45.715Z,101161.47
2022-08-27T17:20:12.971Z,101163.31
2022-08-27T17:22:42.781Z,101157.06
2022-08-27T17:25:10.171Z,101165.63
2022-08-27T17:27:36.907Z,101169.34
2022-08-27T17:30:04.686Z,101167.31
2022-08-27T17:32:33.507Z,101169.19
2022-08-27T17:35:03.711Z,101172.72
2022-08-27T17:37:35.944Z,101175.03
2022-08-27T17:40:06.740Z,101173.31
2022-08-27T17:42:33.686Z,101173.78
2022-08-27T17:45:00.375Z,101173.78
2022-08-27T17:47:27.991Z,101183.06
2022-08-27T17:49:54.830Z,101181.97
2022-08-27T17:52:25.740Z,101180.66
2022-08-27T17:54:56.454Z,101182.97
2022-08-27T17:57:29.312Z,101178.28
2022-08-27T18:03:47.723Z,101185.28
2022-08-27T18:06:15.752Z,101190.97
2022-08-27T18:08:42.570Z,101190.91
2022-08-27T18:11:11.472Z,101194.59
2022-08-27T18:13:38.727Z,101192.56
2022-08-27T18:16:06.481Z,101198.44
2022-08-27T18:18:34.292Z,101200.16
2022-08-27T18:21:01.425Z,101201.13
2022-08-27T18:23:28.195Z,101200.19
2022-08-27T18:25:55.935Z,101200.34
2022-08-27T18:28:23.382Z,101204.44
2022-08-27T18:30:51.008Z,101204.75
2022-08-27T18:33:18.385Z,101205.75
2022-08-27T18:35:45.246Z,101206.28
2022-08-27T18:38:12.320Z,101209.84
2022-08-27T18:40:45.756Z,101212.84
2022-08-27T18:43:14.155Z,101216.25
2022-08-27T18:45:40.950Z,101208.44
2022-08-27T18:48:17.066Z,101217.13
2022-08-27T18:50:49.649Z,101219.41
2022-08-27T18:53:18.272Z,101215.69
2022-08-27T18:55:45.073Z,101219.72
2022-08-27T18:58:11.912Z,101220.94
2022-08-27T19:00:45.304Z,101229.03
2022-08-27T19:03:15.221Z,101227.06
2022-08-27T19:05:42.090Z,101233.00
2022-08-27T19:08:10.165Z,101233.16
2022-08-27T19:10:37.097Z,101237.56
2022-08-27T19:13:03.944Z,101228.88
2022-08-27T19:15:30.846Z,101230.19
2022-08-27T19:17:58.644Z,101231.91
2022-08-27T19:20:27.526Z,101236.31
2022-08-27T19:22:54.546Z,101243.84
2022-08-27T19:25:21.285Z,101243.53
2022-08-27T19:27:48.066Z,101246.56
2022-08-27T19:30:15.965Z,101243.53
2022-08-27T19:32:43.134Z,101243.13
2022-08-27T19:35:10.673Z,101246.53
2022-08-27T19:37:42.372Z,101242.41
2022-08-27T19:40:10.907Z,101250.94
2022-08-27T19:42:38.873Z,101256.06
2022-08-27T19:45:06.987Z,101253.22
2022-08-27T19:47:33.839Z,101256.06
2022-08-27T19:50:00.569Z,101259.75
2022-08-27T19:52:27.363Z,101258.63
2022-08-27T19:55:13.247Z,101252.94
2022-08-27T19:57:41.313Z,101253.50
2022-08-27T20:00:09.480Z,101253.50
2022-08-27T20:02:37.190Z,101261.28
2022-08-27T20:05:20.821Z,101253.19
2022-08-27T20:07:50.271Z,101247.66
2022-08-27T20:10:18.915Z,101245.38
2022-08-27T20:12:45.702Z,101249.53
2022-08-27T20:15:12.827Z,101244.31
2022-08-27T20:17:39.869Z,101247.16
2022-08-27T20:20:07.355Z,101248.28
2022-08-27T20:22:34.051Z,101246.44
2022-08-27T20:25:01.051Z,101251.47
2022-08-27T20:27:27.853Z,101246.91
2022-08-27T20:29:54.998Z,101255.41
2022-08-27T20:32:24.792Z,101245.34
2022-08-27T20:34:54.662Z,101260.09
2022-08-27T20:37:21.306Z,101254.44
2022-08-27T20:39:48.411Z,101260.09
2022-08-27T20:42:15.153Z,101262.81
2022-08-27T20:44:41.858Z,101259.84
2022-08-27T20:47:10.871Z,101266.22
2022-08-27T20:49:40.237Z,101259.13
2022-08-27T20:52:11.559Z,101265.22
2022-08-27T20:54:39.370Z,101264.53
2022-08-27T20:57:06.051Z,101273.34
2022-08-27T20:59:51.361Z,101278.28
2022-08-27T21:02:25.193Z,101273.34
2022-08-27T21:04:52.816Z,101279.88
2022-08-27T21:07:20.917Z,101279.88
2022-08-27T21:09:57.030Z,101280.28
2022-08-27T21:12:29.615Z,101284.56
2022-08-27T21:14:56.773Z,101280.28
2022-08-27T21:17:26.761Z,101280.88
2022-08-27T21:19:53.540Z,101282.03
2022-08-27T21:22:21.167Z,101283.16
2022-08-27T21:24:47.853Z,101289.69
2022-08-27T21:27:15.817Z,101287.84
2022-08-27T21:29:44.755Z,101289.72
2022-08-27T21:32:12.235Z,101295.09
2022-08-27T21:34:38.982Z,101298.09
2022-08-27T21:37:05.708Z,101307.47
2022-08-27T21:39:34.341Z,101305.03
2022-08-27T21:42:01.696Z,101300.50
2022-08-27T21:44:29.817Z,101304.00
2022-08-27T21:46:57.187Z,101306.69
2022-08-27T21:49:23.862Z,101312.09
2022-08-27T21:51:50.581Z,101311.25
2022-08-27T21:54:17.297Z,101310.81
2022-08-27T21:56:44.862Z,101308.38
2022-08-27T21:59:11.941Z,101303.59
2022-08-27T22:01:39.596Z,101306.28
2022-08-27T22:04:06.552Z,101306.41
2022-08-27T22:06:33.283Z,101305.25
2022-08-27T22:09:00.143Z,101314.94
2022-08-27T22:11:27.541Z,101312.50
2022-08-27T22:13:58.282Z,101316.91
2022-08-27T22:16:25.081Z,101320.31
2022-08-27T22:18:55.126Z,101315.06
2022-08-27T22:21:23.705Z,101317.34
2022-08-27T22:23:53.732Z,101311.03
2022-08-27T22:26:21.705Z,101318.28
2022-08-27T22:28:48.568Z,101315.44
2022-08-27T22:31:15.902Z,101316.59
2022-08-27T22:33:42.881Z,101320.41
2022-08-27T22:36:09.995Z,101321.69
2022-08-27T22:38:36.872Z,101321.50
2022-08-27T22:41:03.703Z,101322.06
2022-08-27T22:43:30.883Z,101321.19
2022-08-27T22:45:57.743Z,101324.47
2022-08-27T22:48:24.646Z,101323.59
2022-08-27T22:50:51.499Z,101323.28
2022-08-27T22:53:18.242Z,101322.88
2022-08-27T22:55:49.895Z,101334.38
2022-08-27T22:58:18.030Z,101323.34
2022-08-27T23:00:45.228Z,101333.81
2022-08-27T23:03:19.797Z,101333.34
2022-08-27T23:05:46.734Z,101334.66
2022-08-27T23:08:14.314Z,101328.34
2022-08-27T23:10:43.384Z,101323.75
2022-08-27T23:13:11.638Z,101324.75
2022-08-27T23:15:38.951Z,101325.47
2022-08-27T23:18:06.292Z,101329.03
2022-08-27T23:20:34.357Z,101332.94
2022-08-27T23:23:01.201Z,101336.38
2022-08-27T23:25:48.094Z,101322.31
2022-08-27T23:28:16.107Z,101332.63
2022-08-27T23:30:44.028Z,101328.63
2022-08-27T23:33:11.741Z,101327.13
2022-08-27T23:35:38.846Z,101330.66
2022-08-27T23:38:05.499Z,101335.59
2022-08-27T23:40:32.253Z,101329.56
2022-08-27T23:42:59.688Z,101326.44
2022-08-27T23:45:27.245Z,101336.34
2022-08-27T23:47:54.094Z,101338.09
2022-08-27T23:50:23.157Z,101333.84
2022-08-27T23:53:01.821Z,101338.09
2022-08-27T23:55:28.927Z,101336.56
2022-08-27T23:57:57.836Z,101335.81
